sensor_id;sensor_type;location;lat;lon;timestamp;temperature;humidity
37322;DHT22;23697;48.684;9.032;2023-07-08T00:01:21;20.70;44.70
37322;DHT22;23697;48.684;9.032;2023-07-08T00:03:52;20.70;44.50
37322;DHT22;23697;48.684;9.032;2023-07-08T00:06:25;20.70;44.50
37322;DHT22;23697;48.684;9.032;2023-07-08T00:08:58;20.70;44.90
37322;DHT22;23697;48.684;9.032;2023-07-08T00:11:27;20.60;45.00
37322;DHT22;23697;48.684;9.032;2023-07-08T00:13:55;20.70;43.50
37322;DHT22;23697;48.684;9.032;2023-07-08T00:16:25;20.70;43.80
37322;DHT22;23697;48.684;9.032;2023-07-08T00:18:52;20.80;43.20
37322;DHT22;23697;48.684;9.032;2023-07-08T00:21:21;20.80;43.10
37322;DHT22;23697;48.684;9.032;2023-07-08T00:23:52;20.80;43.20
37322;DHT22;23697;48.684;9.032;2023-07-08T00:26:22;20.90;43.10
37322;DHT22;23697;48.684;9.032;2023-07-08T00:28:51;20.90;43.40
37322;DHT22;23697;48.684;9.032;2023-07-08T00:31:21;20.80;43.00
37322;DHT22;23697;48.684;9.032;2023-07-08T00:33:49;20.80;43.40
37322;DHT22;23697;48.684;9.032;2023-07-08T00:36:21;20.80;42.90
37322;DHT22;23697;48.684;9.032;2023-07-08T00:38:49;20.90;43.20
37322;DHT22;23697;48.684;9.032;2023-07-08T00:41:20;21.00;43.60
37322;DHT22;23697;48.684;9.032;2023-07-08T00:43:50;20.90;43.60
37322;DHT22;23697;48.684;9.032;2023-07-08T00:46:37;20.80;43.40
37322;DHT22;23697;48.684;9.032;2023-07-08T00:49:26;20.80;42.50
37322;DHT22;23697;48.684;9.032;2023-07-08T00:54:41;20.70;43.50
37322;DHT22;23697;48.684;9.032;2023-07-08T00:57:11;20.60;45.00
37322;DHT22;23697;48.684;9.032;2023-07-08T01:00:02;20.50;45.60
37322;DHT22;23697;48.684;9.032;2023-07-08T01:02:38;20.30;46.30
37322;DHT22;23697;48.684;9.032;2023-07-08T01:05:11;20.20;47.20
37322;DHT22;23697;48.684;9.032;2023-07-08T01:07:43;20.10;48.40
37322;DHT22;23697;48.684;9.032;2023-07-08T01:10:19;19.90;49.00
37322;DHT22;23697;48.684;9.032;2023-07-08T01:13:00;19.80;49.30
37322;DHT22;23697;48.684;9.032;2023-07-08T01:15:45;19.60;50.10
37322;DHT22;23697;48.684;9.032;2023-07-08T01:18:30;19.50;50.20
37322;DHT22;23697;48.684;9.032;2023-07-08T01:21:27;19.40;50.60
37322;DHT22;23697;48.684;9.032;2023-07-08T01:24:35;19.40;50.30
37322;DHT22;23697;48.684;9.032;2023-07-08T04:49:30;18.90;56.70
37322;DHT22;23697;48.684;9.032;2023-07-08T06:19:54;21.40;53.30
37322;DHT22;23697;48.684;9.032;2023-07-08T06:22:23;21.50;52.80
37322;DHT22;23697;48.684;9.032;2023-07-08T06:24:54;21.60;51.50
37322;DHT22;23697;48.684;9.032;2023-07-08T06:28:02;21.70;53.10
37322;DHT22;23697;48.684;9.032;2023-07-08T06:30:46;21.90;51.20
37322;DHT22;23697;48.684;9.032;2023-07-08T06:33:24;21.90;51.20
37322;DHT22;23697;48.684;9.032;2023-07-08T06:35:54;22.00;51.30
37322;DHT22;23697;48.684;9.032;2023-07-08T06:38:27;22.10;50.30
37322;DHT22;23697;48.684;9.032;2023-07-08T06:41:03;22.10;51.20
37322;DHT22;23697;48.684;9.032;2023-07-08T06:44:30;22.20;49.70
37322;DHT22;23697;48.684;9.032;2023-07-08T06:47:11;22.40;50.10
37322;DHT22;23697;48.684;9.032;2023-07-08T06:49:42;22.50;49.80
37322;DHT22;23697;48.684;9.032;2023-07-08T06:52:29;22.70;49.20
37322;DHT22;23697;48.684;9.032;2023-07-08T06:55:26;22.80;49.10
37322;DHT22;23697;48.684;9.032;2023-07-08T06:57:59;22.80;49.10
37322;DHT22;23697;48.684;9.032;2023-07-08T07:00:45;22.80;49.60
37322;DHT22;23697;48.684;9.032;2023-07-08T07:03:25;22.80;49.50
37322;DHT22;23697;48.684;9.032;2023-07-08T07:06:04;22.80;50.40
37322;DHT22;23697;48.684;9.032;2023-07-08T07:08:41;22.80;50.20
37322;DHT22;23697;48.684;9.032;2023-07-08T07:18:28;22.90;50.10
37322;DHT22;23697;48.684;9.032;2023-07-08T07:21:16;22.90;50.60
37322;DHT22;23697;48.684;9.032;2023-07-08T07:24:00;23.00;51.10
37322;DHT22;23697;48.684;9.032;2023-07-08T07:26:37;23.10;51.60
37322;DHT22;23697;48.684;9.032;2023-07-08T07:29:06;23.20;51.50
37322;DHT22;23697;48.684;9.032;2023-07-08T07:31:33;23.20;51.30
37322;DHT22;23697;48.684;9.032;2023-07-08T07:34:01;23.30;52.10
37322;DHT22;23697;48.684;9.032;2023-07-08T07:36:28;23.30;51.80
37322;DHT22;23697;48.684;9.032;2023-07-08T07:38:57;23.30;51.20
37322;DHT22;23697;48.684;9.032;2023-07-08T07:41:34;23.20;50.90
37322;DHT22;23697;48.684;9.032;2023-07-08T07:44:32;23.30;52.50
37322;DHT22;23697;48.684;9.032;2023-07-08T07:47:27;23.40;52.30
37322;DHT22;23697;48.684;9.032;2023-07-08T07:49:58;23.40;52.50
37322;DHT22;23697;48.684;9.032;2023-07-08T07:52:30;23.50;52.60
37322;DHT22;23697;48.684;9.032;2023-07-08T07:55:02;23.60;52.20
37322;DHT22;23697;48.684;9.032;2023-07-08T07:57:39;23.70;51.90
37322;DHT22;23697;48.684;9.032;2023-07-08T08:04:03;23.70;51.90
37322;DHT22;23697;48.684;9.032;2023-07-08T08:07:27;23.70;52.30
37322;DHT22;23697;48.684;9.032;2023-07-08T08:10:18;23.60;52.40
37322;DHT22;23697;48.684;9.032;2023-07-08T08:12:45;23.60;52.00
37322;DHT22;23697;48.684;9.032;2023-07-08T08:15:33;23.60;52.00
37322;DHT22;23697;48.684;9.032;2023-07-08T08:18:53;23.70;52.30
37322;DHT22;23697;48.684;9.032;2023-07-08T08:21:32;23.80;51.20
37322;DHT22;23697;48.684;9.032;2023-07-08T08:24:24;24.20;52.30
37322;DHT22;23697;48.684;9.032;2023-07-08T08:34:02;25.60;50.10
37322;DHT22;23697;48.684;9.032;2023-07-08T08:36:32;26.00;48.20
37322;DHT22;23697;48.684;9.032;2023-07-08T08:39:04;26.10;46.10
37322;DHT22;23697;48.684;9.032;2023-07-08T08:44:51;26.50;44.80
37322;DHT22;23697;48.684;9.032;2023-07-08T08:59:57;27.60;42.50
37322;DHT22;23697;48.684;9.032;2023-07-08T09:02:30;27.80;41.90
37322;DHT22;23697;48.684;9.032;2023-07-08T09:05:03;27.70;41.70
37322;DHT22;23697;48.684;9.032;2023-07-08T09:07:36;27.50;41.60
37322;DHT22;23697;48.684;9.032;2023-07-08T09:10:12;27.10;41.50
37322;DHT22;23697;48.684;9.032;2023-07-08T09:12:40;27.00;42.20
37322;DHT22;23697;48.684;9.032;2023-07-08T09:15:15;26.70;42.50
37322;DHT22;23697;48.684;9.032;2023-07-08T09:17:42;26.70;42.80
37322;DHT22;23697;48.684;9.032;2023-07-08T09:20:18;26.90;41.60
37322;DHT22;23697;48.684;9.032;2023-07-08T09:22:51;27.10;42.30
37322;DHT22;23697;48.684;9.032;2023-07-08T09:25:25;27.60;41.50
37322;DHT22;23697;48.684;9.032;2023-07-08T09:27:53;27.90;38.60
37322;DHT22;23697;48.684;9.032;2023-07-08T09:30:24;27.80;40.60
37322;DHT22;23697;48.684;9.032;2023-07-08T09:32:57;28.00;39.80
37322;DHT22;23697;48.684;9.032;2023-07-08T09:35:27;28.40;39.20
37322;DHT22;23697;48.684;9.032;2023-07-08T09:37:54;28.60;37.70
37322;DHT22;23697;48.684;9.032;2023-07-08T09:40:28;29.00;37.10
37322;DHT22;23697;48.684;9.032;2023-07-08T09:43:00;29.10;36.90
37322;DHT22;23697;48.684;9.032;2023-07-08T09:45:40;29.40;36.90
37322;DHT22;23697;48.684;9.032;2023-07-08T09:48:14;29.80;37.70
37322;DHT22;23697;48.684;9.032;2023-07-08T09:50:43;30.20;35.30
37322;DHT22;23697;48.684;9.032;2023-07-08T09:53:13;30.60;36.70
37322;DHT22;23697;48.684;9.032;2023-07-08T09:55:40;30.50;35.90
37322;DHT22;23697;48.684;9.032;2023-07-08T10:01:30;29.50;38.30
37322;DHT22;23697;48.684;9.032;2023-07-08T10:04:03;29.20;38.70
37322;DHT22;23697;48.684;9.032;2023-07-08T10:06:32;29.20;39.40
37322;DHT22;23697;48.684;9.032;2023-07-08T10:09:18;29.80;39.30
37322;DHT22;23697;48.684;9.032;2023-07-08T10:36:27;31.30;36.30
37322;DHT22;23697;48.684;9.032;2023-07-08T10:45:51;31.80;35.70
37322;DHT22;23697;48.684;9.032;2023-07-08T11:02:54;32.10;35.10
37322;DHT22;23697;48.684;9.032;2023-07-08T11:05:50;32.20;34.50
37322;DHT22;23697;48.684;9.032;2023-07-08T11:15:54;32.20;33.70
37322;DHT22;23697;48.684;9.032;2023-07-08T11:19:23;32.50;33.60
37322;DHT22;23697;48.684;9.032;2023-07-08T11:22:23;32.60;32.70
37322;DHT22;23697;48.684;9.032;2023-07-08T13:40:45;32.50;30.00
37322;DHT22;23697;48.684;9.032;2023-07-08T13:44:24;32.30;30.60
37322;DHT22;23697;48.684;9.032;2023-07-08T17:26:32;28.70;40.80
37322;DHT22;23697;48.684;9.032;2023-07-08T17:32:19;28.50;40.50
37322;DHT22;23697;48.684;9.032;2023-07-08T17:35:38;28.50;41.90
37322;DHT22;23697;48.684;9.032;2023-07-08T17:39:01;28.30;41.60
37322;DHT22;23697;48.684;9.032;2023-07-08T17:45:12;28.20;43.00
37322;DHT22;23697;48.684;9.032;2023-07-08T17:52:30;28.10;43.30
37322;DHT22;23697;48.684;9.032;2023-07-08T17:59:28;28.10;42.70
37322;DHT22;23697;48.684;9.032;2023-07-08T18:02:25;28.10;43.10
37322;DHT22;23697;48.684;9.032;2023-07-08T18:04:55;28.00;43.10
37322;DHT22;23697;48.684;9.032;2023-07-08T18:21:26;27.80;47.20
37322;DHT22;23697;48.684;9.032;2023-07-08T18:32:04;27.50;46.80
37322;DHT22;23697;48.684;9.032;2023-07-08T18:37:26;27.10;47.10
37322;DHT22;23697;48.684;9.032;2023-07-08T18:40:33;27.20;47.70
37322;DHT22;23697;48.684;9.032;2023-07-08T18:43:38;27.10;48.70
37322;DHT22;23697;48.684;9.032;2023-07-08T18:46:27;27.00;48.00
37322;DHT22;23697;48.684;9.032;2023-07-08T18:49:18;26.90;47.80
37322;DHT22;23697;48.684;9.032;2023-07-08T18:55:04;26.80;47.90
37322;DHT22;23697;48.684;9.032;2023-07-08T18:57:33;26.60;46.80
37322;DHT22;23697;48.684;9.032;2023-07-08T19:03:49;26.50;47.50
37322;DHT22;23697;48.684;9.032;2023-07-08T19:09:09;26.40;48.20
37322;DHT22;23697;48.684;9.032;2023-07-08T19:15:48;26.20;49.20
37322;DHT22;23697;48.684;9.032;2023-07-08T19:18:43;26.00;48.50
37322;DHT22;23697;48.684;9.032;2023-07-08T19:53:01;24.90;50.10
37322;DHT22;23697;48.684;9.032;2023-07-08T19:55:36;24.70;50.70
37322;DHT22;23697;48.684;9.032;2023-07-08T19:58:52;24.60;50.60
37322;DHT22;23697;48.684;9.032;2023-07-08T22:22:20;21.70;63.70
37322;DHT22;23697;48.684;9.032;2023-07-08T22:36:30;21.40;65.30
37322;DHT22;23697;48.684;9.032;2023-07-08T22:57:09;21.10;66.10
37322;DHT22;23697;48.684;9.032;2023-07-08T23:00:34;21.00;66.30
37322;DHT22;23697;48.684;9.032;2023-07-08T23:24:10;20.60;67.80
37322;DHT22;23697;48.684;9.032;2023-07-08T23:29:45;20.60;68.30
37322;DHT22;23697;48.684;9.032;2023-07-08T23:31:08;20.60;68.30
